createdAt,value
2019-03-22T00:00:34.510Z,42.60
2019-03-22T00:04:53.552Z,42.60
2019-03-22T00:09:13.049Z,42.70
2019-03-22T00:13:32.458Z,42.90
2019-03-22T00:17:51.506Z,42.90
2019-03-22T00:22:10.505Z,43.00
2019-03-22T00:26:32.408Z,43.10
2019-03-22T00:30:51.501Z,43.10
2019-03-22T00:35:10.720Z,43.20
2019-03-22T00:39:29.856Z,43.20
2019-03-22T00:43:48.830Z,43.20
2019-03-22T00:48:07.797Z,43.20
2019-03-22T00:52:26.921Z,43.40
2019-03-22T00:56:45.863Z,43.40
2019-03-22T01:01:04.795Z,43.60
2019-03-22T01:05:24.514Z,43.60
2019-03-22T01:09:43.405Z,43.60
2019-03-22T01:14:02.663Z,43.70
2019-03-22T01:18:22.115Z,43.80
2019-03-22T01:22:41.164Z,43.90
2019-03-22T01:27:00.905Z,44.00
2019-03-22T01:31:20.704Z,44.10
2019-03-22T01:35:40.090Z,44.10
2019-03-22T01:39:59.052Z,44.10
2019-03-22T01:44:17.964Z,44.10
2019-03-22T01:48:37.373Z,44.20
2019-03-22T01:52:57.094Z,44.40
2019-03-22T01:57:16.018Z,44.20
2019-03-22T02:01:35.859Z,44.20
2019-03-22T02:05:56.215Z,44.40
2019-03-22T02:10:16.353Z,44.40
2019-03-22T02:14:35.950Z,44.60
2019-03-22T02:18:54.882Z,44.40
2019-03-22T02:23:14.010Z,44.40
2019-03-22T02:27:33.351Z,44.50
2019-03-22T02:31:52.322Z,44.50
2019-03-22T02:36:11.802Z,44.50
2019-03-22T02:40:30.823Z,44.60
2019-03-22T02:44:49.847Z,44.60
2019-03-22T02:49:08.843Z,44.60
2019-03-22T02:53:30.215Z,44.80
2019-03-22T02:57:48.782Z,44.70
2019-03-22T03:02:07.759Z,44.80
2019-03-22T03:06:26.781Z,44.80
2019-03-22T03:10:45.775Z,44.90
2019-03-22T03:15:05.554Z,44.90
2019-03-22T03:19:24.707Z,45.00
2019-03-22T03:23:43.747Z,44.90
2019-03-22T03:28:02.674Z,44.90
2019-03-22T03:32:21.683Z,44.90
2019-03-22T03:36:40.724Z,45.00
2019-03-22T03:40:59.675Z,45.10
2019-03-22T03:45:33.886Z,45.10
2019-03-22T03:49:53.258Z,45.20
2019-03-22T03:54:12.568Z,45.30
2019-03-22T03:58:32.531Z,45.40
2019-03-22T04:02:51.412Z,45.40
2019-03-22T04:07:11.664Z,45.40
2019-03-22T04:11:31.022Z,45.40
2019-03-22T04:15:50.136Z,45.50
2019-03-22T04:20:09.483Z,45.60
2019-03-22T04:24:28.546Z,45.50
2019-03-22T04:28:47.809Z,45.50
2019-03-22T04:33:07.178Z,45.50
2019-03-22T04:37:26.463Z,45.60
2019-03-22T04:41:45.804Z,45.50
2019-03-22T04:46:05.416Z,46.30
2019-03-22T04:50:27.392Z,45.70
2019-03-22T04:54:50.665Z,45.80
2019-03-22T04:59:19.335Z,45.90
2019-03-22T05:03:40.558Z,46.50
2019-03-22T05:08:00.349Z,46.40
2019-03-22T05:12:22.821Z,46.40
2019-03-22T05:16:46.113Z,46.40
2019-03-22T05:21:06.985Z,46.40
2019-03-22T05:25:28.276Z,46.10
2019-03-22T05:29:51.053Z,46.20
2019-03-22T05:34:10.056Z,46.30
2019-03-22T05:38:29.141Z,46.40
2019-03-22T05:42:48.385Z,47.00
2019-03-22T05:47:07.284Z,46.70
2019-03-22T05:51:26.407Z,46.70
2019-03-22T05:55:45.340Z,47.00
2019-03-22T06:00:05.205Z,47.00
2019-03-22T06:04:24.355Z,47.20
2019-03-22T06:08:43.826Z,47.20
2019-03-22T06:13:02.955Z,47.40
2019-03-22T06:17:21.979Z,47.40
2019-03-22T06:21:41.082Z,47.50
2019-03-22T06:26:00.068Z,47.80
2019-03-22T06:30:19.043Z,47.90
2019-03-22T06:34:38.487Z,47.90
2019-03-22T06:38:58.644Z,47.90
2019-03-22T06:43:18.218Z,48.00
2019-03-22T06:47:37.342Z,48.00
2019-03-22T06:51:56.239Z,48.50
2019-03-22T06:56:15.165Z,48.40
2019-03-22T07:00:34.666Z,48.50
2019-03-22T07:04:53.699Z,48.40
2019-03-22T07:09:12.988Z,48.50
2019-03-22T07:13:35.689Z,48.60
2019-03-22T07:17:54.666Z,48.40
2019-03-22T07:22:14.098Z,48.40
2019-03-22T07:26:33.301Z,48.40
2019-03-22T07:30:52.266Z,48.70
2019-03-22T07:35:11.470Z,49.40
2019-03-22T07:39:30.606Z,50.90
2019-03-22T07:43:49.561Z,53.90
2019-03-22T07:48:08.603Z,57.20
2019-03-22T07:52:27.665Z,59.30
2019-03-22T07:56:46.637Z,59.00
2019-03-22T08:01:05.704Z,58.80
2019-03-22T08:05:24.658Z,57.80
2019-03-22T08:09:43.608Z,57.60
2019-03-22T08:14:02.611Z,57.50
2019-03-22T08:18:21.919Z,57.10
2019-03-22T08:22:40.932Z,56.40
2019-03-22T08:27:00.026Z,56.00
2019-03-22T08:31:18.987Z,55.10
2019-03-22T08:35:37.837Z,53.40
2019-03-22T08:39:58.237Z,52.70
2019-03-22T08:44:18.868Z,52.60
2019-03-22T08:48:37.874Z,52.50
2019-03-22T08:52:56.711Z,52.30
2019-03-22T08:57:16.179Z,51.40
2019-03-22T09:01:35.067Z,50.00
2019-03-22T09:05:53.899Z,49.20
2019-03-22T09:10:13.321Z,48.30
2019-03-22T09:14:32.409Z,47.30
2019-03-22T09:18:52.134Z,46.10
2019-03-22T09:23:11.259Z,44.90
2019-03-22T09:27:30.283Z,43.90
2019-03-22T09:31:49.637Z,44.50
2019-03-22T09:36:08.810Z,44.70
2019-03-22T09:40:27.828Z,44.10
2019-03-22T09:44:46.905Z,42.90
2019-03-22T09:49:05.967Z,41.80
2019-03-22T09:53:24.961Z,41.30
2019-03-22T09:57:44.064Z,41.60
2019-03-22T10:02:03.812Z,41.70
2019-03-22T10:06:22.899Z,42.20
2019-03-22T10:10:42.418Z,42.10
2019-03-22T10:15:01.521Z,42.10
2019-03-22T10:19:22.023Z,42.20
2019-03-22T10:23:41.373Z,41.50
2019-03-22T10:28:00.358Z,41.40
2019-03-22T10:32:19.247Z,41.10
2019-03-22T10:36:38.604Z,40.60
2019-03-22T10:40:57.708Z,39.80
2019-03-22T10:45:16.779Z,39.40
2019-03-22T10:49:36.109Z,39.10
2019-03-22T10:53:55.580Z,38.40
2019-03-22T10:58:20.741Z,38.10
2019-03-22T11:02:35.123Z,38.30
2019-03-22T11:06:53.937Z,39.00
2019-03-22T11:11:12.937Z,39.10
2019-03-22T11:15:33.167Z,39.20
2019-03-22T11:19:52.683Z,37.00
2019-03-22T11:24:12.476Z,37.10
2019-03-22T11:28:32.462Z,37.80
2019-03-22T11:32:51.474Z,38.10
2019-03-22T11:37:10.412Z,36.20
2019-03-22T11:41:29.428Z,36.10
2019-03-22T11:45:48.706Z,36.60
2019-03-22T11:50:10.005Z,35.50
2019-03-22T11:54:28.958Z,34.20
2019-03-22T11:58:48.114Z,34.10
2019-03-22T12:03:07.926Z,33.60
2019-03-22T12:07:26.897Z,34.90
2019-03-22T12:11:47.884Z,35.20
2019-03-22T12:16:06.973Z,36.00
2019-03-22T12:20:26.458Z,34.80
2019-03-22T12:24:45.442Z,34.30
2019-03-22T12:29:04.456Z,32.90
2019-03-22T12:33:23.452Z,32.70
2019-03-22T12:37:42.495Z,33.00
2019-03-22T12:42:01.497Z,32.40
2019-03-22T12:46:21.545Z,32.50
2019-03-22T12:50:40.496Z,32.50
2019-03-22T12:54:59.792Z,29.80
2019-03-22T12:59:20.737Z,30.90
2019-03-22T13:03:39.620Z,31.50
2019-03-22T13:07:58.868Z,31.80
2019-03-22T13:12:17.731Z,31.60
2019-03-22T13:16:37.248Z,31.50
2019-03-22T13:20:56.064Z,31.50
2019-03-22T13:25:15.702Z,31.50
2019-03-22T13:29:35.338Z,31.70
2019-03-22T13:33:54.917Z,31.80
2019-03-22T13:38:14.174Z,31.50
2019-03-22T13:42:33.669Z,31.50
2019-03-22T13:46:53.067Z,31.50
2019-03-22T13:51:12.364Z,31.30
2019-03-22T13:55:31.341Z,31.00
2019-03-22T13:59:50.406Z,31.10
2019-03-22T14:04:09.330Z,31.10
2019-03-22T14:08:29.271Z,31.00
2019-03-22T14:12:49.096Z,31.00
2019-03-22T14:17:16.384Z,30.80
2019-03-22T14:21:36.309Z,30.60
2019-03-22T14:25:56.403Z,30.20
2019-03-22T14:30:16.352Z,30.00
2019-03-22T14:34:38.620Z,30.10
2019-03-22T14:38:59.259Z,30.30
2019-03-22T14:43:20.465Z,30.50
2019-03-22T14:47:39.544Z,30.20
2019-03-22T14:51:59.699Z,29.50
2019-03-22T14:56:19.689Z,30.00
2019-03-22T15:00:39.050Z,29.80
2019-03-22T15:04:58.203Z,29.60
2019-03-22T15:09:17.203Z,29.20
2019-03-22T15:13:55.353Z,29.50
2019-03-22T15:18:45.190Z,29.70
2019-03-22T15:23:23.588Z,29.80
2019-03-22T15:28:02.136Z,30.10
2019-03-22T15:32:57.069Z,30.10
2019-03-22T15:37:42.535Z,30.00
2019-03-22T15:42:02.631Z,30.20
2019-03-22T15:46:23.219Z,30.50
2019-03-22T15:50:43.105Z,30.20
2019-03-22T15:55:02.911Z,30.30
2019-03-22T15:59:22.791Z,30.50
2019-03-22T16:03:44.700Z,30.60
2019-03-22T16:08:04.970Z,30.40
2019-03-22T16:12:26.153Z,30.60
2019-03-22T16:16:46.901Z,30.60
2019-03-22T16:21:06.882Z,30.70
2019-03-22T16:25:30.661Z,30.90
2019-03-22T16:29:49.859Z,30.70
2019-03-22T16:34:08.881Z,30.80
2019-03-22T16:38:28.397Z,30.90
2019-03-22T16:42:47.889Z,31.00
2019-03-22T16:47:06.905Z,31.10
2019-03-22T16:51:27.514Z,31.20
2019-03-22T16:55:46.487Z,31.30
2019-03-22T17:00:06.325Z,31.20
2019-03-22T17:04:26.120Z,31.30
2019-03-22T17:08:45.395Z,31.20
2019-03-22T17:13:04.653Z,31.30
2019-03-22T17:17:23.801Z,31.40
2019-03-22T17:21:46.504Z,31.50
2019-03-22T17:26:06.720Z,31.70
2019-03-22T17:30:26.361Z,31.60
2019-03-22T17:34:45.903Z,31.60
2019-03-22T17:39:07.478Z,31.70
2019-03-22T17:43:26.562Z,31.90
2019-03-22T17:47:49.328Z,32.00
2019-03-22T17:52:08.268Z,32.00
2019-03-22T17:56:27.310Z,32.20
2019-03-22T18:00:47.297Z,32.20
2019-03-22T18:05:07.265Z,32.40
2019-03-22T18:09:26.796Z,32.40
2019-03-22T18:13:46.193Z,32.60
2019-03-22T18:18:06.950Z,32.70
2019-03-22T18:22:26.089Z,32.80
2019-03-22T18:26:44.991Z,33.00
2019-03-22T18:31:03.927Z,33.20
2019-03-22T18:35:23.204Z,33.40
2019-03-22T18:39:43.784Z,33.50
2019-03-22T18:44:03.663Z,33.60
2019-03-22T18:48:23.121Z,33.60
2019-03-22T18:52:42.183Z,33.80
2019-03-22T18:57:01.234Z,33.90
2019-03-22T19:01:20.249Z,34.10
2019-03-22T19:05:39.310Z,34.10
2019-03-22T19:09:58.294Z,34.10
2019-03-22T19:14:17.237Z,34.30
2019-03-22T19:18:36.324Z,34.50
2019-03-22T19:22:56.471Z,34.60
2019-03-22T19:27:16.760Z,34.70
2019-03-22T19:31:35.910Z,34.90
2019-03-22T19:35:58.197Z,35.00
2019-03-22T19:40:17.341Z,35.00
2019-03-22T19:44:36.806Z,35.10
2019-03-22T19:48:57.894Z,35.10
2019-03-22T19:53:17.371Z,35.20
2019-03-22T19:57:38.236Z,35.40
2019-03-22T20:01:57.246Z,35.40
2019-03-22T20:06:16.963Z,35.50
2019-03-22T20:10:36.579Z,35.40
2019-03-22T20:14:55.780Z,36.10
2019-03-22T20:19:15.510Z,35.60
2019-03-22T20:23:35.019Z,35.70
2019-03-22T20:27:53.987Z,35.70
2019-03-22T20:32:12.952Z,35.90
2019-03-22T20:36:33.442Z,35.90
2019-03-22T20:40:52.544Z,35.90
2019-03-22T20:45:11.856Z,36.00
2019-03-22T20:49:30.954Z,36.20
2019-03-22T20:53:49.906Z,36.10
2019-03-22T20:58:08.955Z,36.20
2019-03-22T21:02:27.989Z,36.40
2019-03-22T21:06:47.377Z,36.40
2019-03-22T21:11:06.433Z,36.60
2019-03-22T21:15:25.415Z,36.60
2019-03-22T21:19:44.818Z,36.70
2019-03-22T21:24:04.317Z,36.70
2019-03-22T21:28:23.353Z,36.80
2019-03-22T21:32:45.506Z,36.90
2019-03-22T21:37:03.464Z,37.00
2019-03-22T21:41:23.665Z,37.00
2019-03-22T21:45:42.637Z,37.10
2019-03-22T21:50:01.655Z,37.20
2019-03-22T21:54:21.393Z,37.20
2019-03-22T21:58:40.446Z,37.30
2019-03-22T22:02:59.276Z,37.30
2019-03-22T22:07:18.310Z,37.60
2019-03-22T22:11:37.589Z,37.50
2019-03-22T22:15:56.534Z,37.60
2019-03-22T22:20:15.654Z,37.70
2019-03-22T22:24:34.715Z,37.90
2019-03-22T22:28:53.755Z,37.90
2019-03-22T22:33:12.665Z,38.00
2019-03-22T22:37:31.655Z,37.90
2019-03-22T22:41:50.537Z,38.00
2019-03-22T22:46:10.915Z,38.10
2019-03-22T22:50:30.291Z,38.20
2019-03-22T22:54:49.730Z,38.40
2019-03-22T22:59:08.721Z,38.70
2019-03-22T23:03:28.029Z,38.60
2019-03-22T23:07:47.021Z,38.80
2019-03-22T23:12:07.485Z,38.80
2019-03-22T23:16:26.615Z,38.90
2019-03-22T23:20:45.708Z,38.90
2019-03-22T23:25:04.721Z,39.10
2019-03-22T23:29:24.729Z,39.10
2019-03-22T23:33:43.858Z,39.20
2019-03-22T23:38:03.804Z,39.20
2019-03-22T23:42:23.160Z,39.20
2019-03-22T23:46:42.086Z,39.20
2019-03-22T23:51:01.019Z,39.20
2019-03-22T23:55:20.222Z,39.20
2019-03-22T23:59:39.527Z,39.30
